Time;durP1;ratioP1;P1;durP2;ratioP2;P2;SDS_P1;SDS_P2;PMS_P1;PMS_P2;Temp;Humidity;BMP_temperature;BMP_pressure;BME280_temperature;BME280_humidity;BME280_pressure;Samples;Min_cycle;Max_cycle;Signal;HPM_P1;HPM_P2
2021/11/14 00:00:25;;;;;;;10.90;8.73;;;10.00;99.90;;;;;;4974097;28;20491;-71
2021/11/14 00:02:53;;;;;;;10.10;9.13;;;10.10;99.90;;;;;;4974475;28;20180;-70
2021/11/14 00:05:18;;;;;;;10.47;9.47;;;10.10;99.90;;;;;;4961197;28;20425;-69
2021/11/14 00:07:44;;;;;;;12.20;11.00;;;10.10;99.90;;;;;;4959521;29;20428;-71
2021/11/14 00:10:10;;;;;;;12.93;10.90;;;10.00;99.90;;;;;;4963779;29;20953;-71
2021/11/14 00:12:38;;;;;;;14.03;10.83;;;9.90;99.90;;;;;;4963091;28;20598;-69
2021/11/14 00:15:04;;;;;;;10.07;9.07;;;9.80;99.90;;;;;;4961498;28;20436;-69
2021/11/14 00:17:30;;;;;;;11.38;10.27;;;9.80;99.90;;;;;;4963961;29;20821;-69
2021/11/14 00:19:56;;;;;;;15.47;10.10;;;9.80;99.90;;;;;;4963059;29;20173;-70
2021/11/14 00:22:21;;;;;;;10.50;9.50;;;9.80;99.90;;;;;;4939657;29;20441;-71
2021/11/14 00:24:47;;;;;;;14.50;10.20;;;9.80;99.90;;;;;;4955005;28;20260;-70
2021/11/14 00:27:12;;;;;;;12.90;10.43;;;9.80;99.90;;;;;;4956721;28;20338;-71
2021/11/14 00:29:38;;;;;;;11.90;10.13;;;9.80;99.90;;;;;;4955329;29;20674;-71
2021/11/14 00:32:04;;;;;;;12.77;10.90;;;9.80;99.90;;;;;;4954496;28;20224;-70
2021/11/14 00:34:30;;;;;;;13.23;11.73;;;9.70;99.90;;;;;;4955050;29;20184;-70
2021/11/14 00:36:55;;;;;;;12.13;10.90;;;9.70;99.90;;;;;;4955644;28;20785;-70
2021/11/14 00:39:21;;;;;;;11.37;10.27;;;9.70;99.90;;;;;;4955993;29;20255;-71
2021/11/14 00:41:47;;;;;;;11.87;10.77;;;9.80;99.90;;;;;;4961583;28;20259;-70
2021/11/14 00:44:16;;;;;;;12.10;10.90;;;9.80;99.90;;;;;;4973349;28;20541;-71
2021/11/14 00:46:42;;;;;;;13.20;10.27;;;9.80;99.90;;;;;;4973243;28;20426;-70
2021/11/14 00:49:08;;;;;;;11.20;10.10;;;9.90;99.90;;;;;;4956101;28;20424;-70
2021/11/14 00:51:33;;;;;;;12.33;10.90;;;9.90;99.90;;;;;;4971673;28;20497;-71
2021/11/14 00:54:01;;;;;;;12.63;10.97;;;9.90;99.90;;;;;;4973515;28;20534;-70
2021/11/14 00:56:27;;;;;;;11.27;10.10;;;10.00;99.90;;;;;;4973401;28;20173;-70
2021/11/14 00:58:53;;;;;;;11.87;9.97;;;10.00;99.90;;;;;;4973032;28;20424;-70
2021/11/14 01:01:20;;;;;;;11.83;9.10;;;10.00;99.90;;;;;;4973654;28;20502;-70
2021/11/14 01:03:46;;;;;;;10.40;8.00;;;10.10;99.90;;;;;;4969748;28;20431;-71
2021/11/14 01:06:11;;;;;;;11.47;9.27;;;10.00;99.90;;;;;;4977268;28;20487;-71
2021/11/14 01:08:37;;;;;;;10.30;9.27;;;10.00;99.90;;;;;;4977227;28;20187;-70
2021/11/14 01:11:04;;;;;;;13.13;11.60;;;10.00;99.90;;;;;;4976806;28;20206;-69
2021/11/14 01:13:31;;;;;;;11.20;10.10;;;9.90;99.90;;;;;;4970488;28;20195;-70
2021/11/14 01:15:57;;;;;;;11.10;9.90;;;9.90;99.90;;;;;;4957202;29;20895;-70
2021/11/14 01:18:23;;;;;;;11.33;9.50;;;9.90;99.90;;;;;;4957768;28;20464;-70
2021/11/14 01:20:53;;;;;;;13.00;11.60;;;9.90;99.90;;;;;;4957615;29;20201;-70
2021/11/14 01:23:20;;;;;;;13.73;11.33;;;9.90;99.90;;;;;;4958162;28;20399;-71
2021/11/14 01:25:47;;;;;;;13.93;11.73;;;9.80;99.90;;;;;;4972573;28;20463;-70
2021/11/14 01:28:12;;;;;;;13.90;11.67;;;9.90;99.90;;;;;;4976566;28;20502;-70
2021/11/14 01:30:41;;;;;;;13.00;11.60;;;10.00;99.90;;;;;;4977087;28;20450;-71
2021/11/14 01:33:09;;;;;;;13.13;11.10;;;10.00;99.90;;;;;;4972081;28;20208;-71
2021/11/14 01:35:35;;;;;;;12.50;10.90;;;10.00;99.90;;;;;;4963205;29;20735;-70
2021/11/14 01:38:04;;;;;;;10.80;9.30;;;10.00;99.90;;;;;;4959972;29;20460;-70
2021/11/14 01:40:37;;;;;;;9.23;8.30;;;10.00;99.90;;;;;;4957065;28;20433;-70
2021/11/14 01:43:06;;;;;;;10.17;9.27;;;9.90;99.90;;;;;;4958140;28;20470;-71
2021/11/14 01:45:32;;;;;;;8.77;7.90;;;9.90;99.90;;;;;;4956283;29;20416;-70
2021/11/14 01:47:57;;;;;;;8.37;7.57;;;9.90;99.90;;;;;;4956893;29;21120;-70
2021/11/14 01:50:23;;;;;;;8.73;7.93;;;9.90;99.90;;;;;;4956765;29;20522;-71
2021/11/14 01:52:51;;;;;;;10.80;8.50;;;10.00;99.90;;;;;;4956909;28;20196;-71
2021/11/14 01:55:19;;;;;;;9.27;7.70;;;10.00;99.90;;;;;;4957317;28;21044;-70
2021/11/14 01:57:45;;;;;;;9.13;7.73;;;10.10;99.90;;;;;;4956967;29;20655;-70
2021/11/14 02:00:15;;;;;;;13.80;10.43;;;10.10;99.90;;;;;;4957072;29;20448;-70
2021/11/14 02:02:41;;;;;;;13.50;11.07;;;10.20;99.90;;;;;;4956311;28;20202;-68
2021/11/14 02:05:08;;;;;;;18.23;16.27;;;10.20;99.90;;;;;;4958208;28;20859;-68
2021/11/14 02:07:34;;;;;;;19.87;15.83;;;10.20;99.90;;;;;;4956568;29;20181;-70
2021/11/14 02:10:00;;;;;;;24.37;17.10;;;10.20;99.90;;;;;;4956886;29;20824;-69
2021/11/14 02:12:26;;;;;;;23.60;17.47;;;10.30;99.90;;;;;;4956467;28;20595;-69
2021/11/14 02:14:52;;;;;;;25.37;17.10;;;10.30;99.90;;;;;;4956342;28;20203;-68
2021/11/14 02:17:18;;;;;;;25.70;17.63;;;10.30;99.90;;;;;;4955444;28;20224;-69
2021/11/14 02:19:52;;;;;;;30.37;19.57;;;10.30;99.90;;;;;;4955879;29;20416;-69
2021/11/14 02:22:19;;;;;;;31.83;19.40;;;10.30;99.90;;;;;;4956318;28;20189;-69
2021/11/14 02:24:45;;;;;;;29.43;19.20;;;10.30;99.90;;;;;;4957105;28;20424;-69
2021/11/14 02:27:11;;;;;;;30.87;20.20;;;10.30;99.90;;;;;;4956380;29;20424;-69
2021/11/14 02:29:37;;;;;;;33.83;20.23;;;10.20;99.90;;;;;;4955807;29;20455;-69
2021/11/14 02:32:03;;;;;;;38.63;21.93;;;10.20;99.90;;;;;;4955741;28;20480;-69
2021/11/14 02:34:29;;;;;;;32.07;21.67;;;10.20;99.90;;;;;;4957133;28;20293;-69
2021/11/14 02:36:54;;;;;;;36.53;22.27;;;10.20;99.90;;;;;;4966070;28;20563;-69
2021/11/14 02:39:20;;;;;;;37.27;21.60;;;10.20;99.90;;;;;;4975058;28;20267;-69
2021/11/14 02:41:46;;;;;;;35.93;23.20;;;10.30;99.90;;;;;;4974365;28;20197;-68
2021/11/14 02:44:12;;;;;;;29.90;20.93;;;10.30;99.90;;;;;;4974731;28;20649;-70
2021/11/14 02:46:37;;;;;;;35.87;22.30;;;10.20;99.90;;;;;;4974473;28;20416;-70
2021/11/14 02:49:03;;;;;;;28.97;18.90;;;10.20;99.90;;;;;;4974773;28;20408;-71
2021/11/14 02:51:31;;;;;;;35.27;20.30;;;10.20;99.90;;;;;;4973629;28;20614;-69
2021/11/14 02:53:57;;;;;;;32.33;20.23;;;10.20;99.90;;;;;;4974143;28;20424;-70
2021/11/14 02:56:24;;;;;;;29.87;17.87;;;10.20;99.90;;;;;;4974658;28;20963;-70
2021/11/14 02:58:49;;;;;;;29.10;19.53;;;10.20;99.90;;;;;;4974849;28;20487;-70
2021/11/14 03:01:20;;;;;;;30.77;18.83;;;10.20;99.90;;;;;;4971040;28;20459;-70
2021/11/14 03:03:47;;;;;;;33.53;19.27;;;10.20;99.90;;;;;;4970782;28;20653;-70
2021/11/14 03:06:13;;;;;;;27.70;17.33;;;10.20;99.90;;;;;;4974168;28;20486;-70
2021/11/14 03:08:39;;;;;;;32.30;18.80;;;10.20;99.90;;;;;;4974482;28;20425;-70
2021/11/14 03:11:05;;;;;;;32.43;18.93;;;10.30;99.90;;;;;;4974029;28;20431;-70
2021/11/14 03:13:31;;;;;;;29.97;18.17;;;10.30;99.90;;;;;;4972510;28;20180;-70
2021/11/14 03:16:00;;;;;;;33.00;19.17;;;10.20;99.90;;;;;;4973963;28;20511;-69
2021/11/14 03:18:26;;;;;;;29.53;18.13;;;10.20;99.90;;;;;;4973783;28;20995;-70
2021/11/14 03:20:53;;;;;;;29.80;18.87;;;10.20;99.90;;;;;;4974453;28;20424;-70
2021/11/14 03:23:20;;;;;;;32.77;18.50;;;10.20;99.90;;;;;;4974654;28;20844;-69
2021/11/14 03:25:46;;;;;;;31.20;18.80;;;10.20;99.90;;;;;;4968716;28;20854;-71
2021/11/14 03:28:13;;;;;;;28.20;18.93;;;10.30;99.90;;;;;;4974067;28;20900;-71
2021/11/14 03:30:39;;;;;;;29.80;20.00;;;10.30;99.90;;;;;;4973773;28;20416;-68
2021/11/14 03:33:07;;;;;;;33.40;19.87;;;10.20;99.90;;;;;;4973946;28;20411;-69
2021/11/14 03:35:52;;;;;;;35.43;19.37;;;10.20;99.90;;;;;;4962678;28;20443;-70
2021/11/14 03:38:22;;;;;;;31.57;19.20;;;10.20;99.90;;;;;;4955353;29;20467;-69
2021/11/14 03:40:48;;;;;;;34.50;20.30;;;10.20;99.90;;;;;;4954371;28;20413;-69
2021/11/14 03:43:14;;;;;;;33.90;20.93;;;10.10;99.90;;;;;;4937016;29;20424;-69
2021/11/14 03:45:41;;;;;;;30.07;18.53;;;10.20;99.90;;;;;;4955584;28;20456;-70
2021/11/14 03:48:08;;;;;;;29.30;19.13;;;10.20;99.90;;;;;;4954449;29;20413;-69
2021/11/14 03:50:34;;;;;;;31.17;17.40;;;10.10;99.90;;;;;;4954146;28;20953;-70
2021/11/14 03:53:00;;;;;;;36.90;18.97;;;10.00;99.90;;;;;;4954491;28;20511;-68
2021/11/14 03:55:26;;;;;;;31.20;19.33;;;10.00;99.90;;;;;;4954817;28;20504;-69
2021/11/14 03:57:51;;;;;;;32.20;18.83;;;10.10;99.90;;;;;;4953983;28;20207;-69
2021/11/14 04:00:20;;;;;;;35.97;19.63;;;10.20;99.90;;;;;;4954118;28;20166;-68
2021/11/14 04:02:48;;;;;;;27.47;16.83;;;10.20;99.90;;;;;;4953764;28;20737;-69
2021/11/14 04:05:14;;;;;;;33.67;20.50;;;10.20;99.90;;;;;;4968468;28;20524;-68
2021/11/14 04:07:40;;;;;;;26.97;18.13;;;10.20;99.90;;;;;;4948221;28;20471;-69
2021/11/14 04:10:06;;;;;;;30.03;18.60;;;10.10;99.90;;;;;;4973161;28;20447;-70
2021/11/14 04:12:32;;;;;;;30.10;18.57;;;10.10;99.90;;;;;;4973028;28;20204;-71
2021/11/14 04:14:58;;;;;;;29.17;18.00;;;10.10;99.90;;;;;;4972848;28;20420;-69
2021/11/14 04:17:23;;;;;;;30.63;19.20;;;10.10;99.90;;;;;;4968793;28;20208;-69
2021/11/14 04:19:49;;;;;;;27.63;17.83;;;10.10;99.90;;;;;;4959822;28;20227;-69
2021/11/14 04:22:15;;;;;;;27.13;17.00;;;10.20;99.90;;;;;;4954127;28;20194;-69
2021/11/14 04:24:41;;;;;;;30.23;19.13;;;10.20;99.90;;;;;;4953544;29;20542;-68
2021/11/14 04:27:07;;;;;;;26.13;18.07;;;10.30;99.90;;;;;;4968149;28;20431;-69
2021/11/14 04:29:32;;;;;;;31.20;19.67;;;10.40;99.90;;;;;;4972182;28;20988;-69
2021/11/14 04:31:58;;;;;;;31.57;19.23;;;10.40;99.90;;;;;;5028978;22;20265;-69
2021/11/14 04:34:23;;;;;;;25.73;16.97;;;10.40;99.90;;;;;;5033207;28;20178;-70
2021/11/14 04:36:49;;;;;;;28.90;17.83;;;10.40;99.90;;;;;;5030100;28;20186;-70
2021/11/14 04:39:15;;;;;;;32.87;17.70;;;10.40;99.90;;;;;;5023002;28;20180;-70
2021/11/14 04:41:40;;;;;;;28.60;17.33;;;10.40;99.90;;;;;;5012364;28;20203;-69
2021/11/14 04:44:06;;;;;;;29.80;17.07;;;10.50;99.90;;;;;;5015798;28;20167;-69
2021/11/14 04:46:31;;;;;;;30.90;19.37;;;10.50;99.90;;;;;;5015184;28;20572;-70
2021/11/14 04:48:57;;;;;;;31.00;17.47;;;10.50;99.90;;;;;;5015351;28;20190;-70
2021/11/14 04:51:22;;;;;;;29.57;18.53;;;10.50;99.90;;;;;;5015108;28;20190;-69
2021/11/14 04:53:48;;;;;;;27.67;16.93;;;10.50;99.90;;;;;;5014148;28;20190;-69
2021/11/14 04:56:14;;;;;;;28.57;17.90;;;10.50;99.90;;;;;;5013929;28;20294;-70
2021/11/14 04:58:39;;;;;;;29.23;17.00;;;10.60;99.90;;;;;;5015095;28;20206;-71
2021/11/14 05:01:05;;;;;;;27.87;16.40;;;10.50;99.90;;;;;;5015052;28;20274;-70
2021/11/14 05:03:32;;;;;;;30.10;18.50;;;10.50;99.90;;;;;;5010086;28;20182;-70
2021/11/14 05:05:57;;;;;;;23.87;15.97;;;10.50;99.90;;;;;;5014828;28;20394;-70
2021/11/14 05:08:24;;;;;;;29.83;16.60;;;10.50;99.90;;;;;;5016942;28;20801;-70
2021/11/14 05:10:50;;;;;;;22.60;15.30;;;10.50;99.90;;;;;;5018864;28;20191;-71
2021/11/14 05:13:18;;;;;;;24.77;16.10;;;10.40;99.90;;;;;;5010901;28;20417;-71
2021/11/14 05:15:43;;;;;;;27.50;15.90;;;10.30;99.90;;;;;;4995364;28;20429;-70
2021/11/14 05:18:09;;;;;;;24.97;15.93;;;10.40;99.90;;;;;;4995325;28;20454;-70
2021/11/14 05:20:35;;;;;;;24.50;16.03;;;10.30;99.90;;;;;;4995517;28;20223;-70
2021/11/14 05:23:02;;;;;;;26.50;16.57;;;10.20;99.90;;;;;;4995287;28;20168;-70
2021/11/14 05:25:27;;;;;;;27.40;17.60;;;10.20;99.90;;;;;;4996035;28;20423;-70
2021/11/14 05:27:53;;;;;;;31.00;18.73;;;10.30;99.90;;;;;;4995135;28;20497;-71
2021/11/14 05:30:19;;;;;;;29.80;17.73;;;10.30;99.90;;;;;;4995188;28;20611;-71
2021/11/14 05:32:44;;;;;;;27.57;17.47;;;10.30;99.90;;;;;;4994975;28;20212;-70
2021/11/14 05:35:10;;;;;;;29.37;21.00;;;10.40;99.90;;;;;;4994681;28;20498;-71
2021/11/14 05:37:36;;;;;;;32.07;20.17;;;10.40;99.90;;;;;;4994973;28;20250;-71
2021/11/14 05:40:02;;;;;;;24.73;16.73;;;10.40;99.90;;;;;;4994730;28;20188;-71
2021/11/14 05:42:28;;;;;;;27.00;18.77;;;10.40;99.90;;;;;;4993557;28;20963;-70
2021/11/14 05:44:54;;;;;;;27.27;18.30;;;10.30;99.90;;;;;;5004611;28;20468;-70
2021/11/14 05:47:19;;;;;;;23.90;18.57;;;10.30;99.90;;;;;;4994955;28;20183;-71
2021/11/14 05:49:45;;;;;;;22.90;17.53;;;10.20;99.90;;;;;;4994637;28;20176;-70
2021/11/14 05:52:10;;;;;;;22.40;17.57;;;10.10;99.90;;;;;;4994599;28;20549;-71
2021/11/14 05:54:36;;;;;;;22.60;16.70;;;10.00;99.90;;;;;;4994623;28;20676;-69
2021/11/14 05:57:02;;;;;;;22.23;16.47;;;9.80;99.90;;;;;;4995603;28;20196;-71
2021/11/14 05:59:38;;;;;;;21.50;17.70;;;9.70;99.90;;;;;;4994593;28;20172;-70
2021/11/14 06:02:14;;;;;;;25.90;17.77;;;9.50;99.90;;;;;;4994706;28;20192;-71
2021/11/14 06:04:54;;;;;;;24.20;16.70;;;9.30;99.90;;;;;;5010205;28;20452;-71
2021/11/14 06:07:19;;;;;;;23.33;17.50;;;9.20;99.90;;;;;;5003529;28;20415;-70
2021/11/14 06:09:45;;;;;;;21.90;17.93;;;9.20;99.90;;;;;;4994635;28;20424;-70
2021/11/14 06:12:10;;;;;;;27.43;19.77;;;9.30;99.90;;;;;;4994236;28;20271;-71
2021/11/14 06:14:36;;;;;;;24.70;18.90;;;9.40;99.90;;;;;;4994282;28;20553;-70
2021/11/14 06:17:02;;;;;;;27.63;20.23;;;9.40;99.90;;;;;;4994474;28;20341;-70
2021/11/14 06:19:27;;;;;;;27.80;19.70;;;9.30;99.90;;;;;;4994639;28;20187;-70
2021/11/14 06:21:53;;;;;;;29.43;20.20;;;9.30;99.90;;;;;;4994240;28;20426;-70
2021/11/14 06:24:19;;;;;;;24.87;18.90;;;9.20;99.90;;;;;;4993905;28;20176;-70
2021/11/14 06:26:45;;;;;;;25.93;20.10;;;9.20;99.90;;;;;;4999271;28;20179;-70
2021/11/14 06:29:11;;;;;;;27.97;19.60;;;9.10;99.90;;;;;;5005477;28;20571;-70
2021/11/14 06:31:37;;;;;;;26.13;20.03;;;9.20;99.90;;;;;;5013231;28;20454;-70
2021/11/14 06:34:02;;;;;;;29.57;20.60;;;9.10;99.90;;;;;;5013571;28;20933;-70
2021/11/14 06:36:29;;;;;;;22.70;18.73;;;9.20;99.90;;;;;;5013255;28;20244;-70
2021/11/14 06:38:55;;;;;;;23.90;19.63;;;9.30;99.90;;;;;;5005735;28;20218;-71
2021/11/14 06:41:21;;;;;;;23.37;18.57;;;9.40;99.90;;;;;;4997030;28;20450;-70
2021/11/14 06:43:46;;;;;;;25.87;17.80;;;9.40;99.90;;;;;;5013051;28;20176;-70
2021/11/14 06:46:12;;;;;;;19.40;16.40;;;9.50;99.90;;;;;;5013220;28;20175;-70
2021/11/14 06:48:38;;;;;;;24.80;17.40;;;9.40;99.90;;;;;;5013655;28;20273;-71
2021/11/14 06:51:04;;;;;;;23.30;15.90;;;9.40;99.90;;;;;;5013367;28;20206;-71
2021/11/14 06:53:29;;;;;;;23.90;16.90;;;9.40;99.90;;;;;;5011455;28;20429;-71
2021/11/14 06:55:55;;;;;;;21.57;15.87;;;9.40;99.90;;;;;;5012995;28;20167;-70
2021/11/14 06:58:21;;;;;;;21.00;15.30;;;9.40;99.90;;;;;;5012126;28;20770;-71
2021/11/14 07:00:47;;;;;;;25.20;15.43;;;9.20;99.90;;;;;;5013179;28;20174;-71
2021/11/14 07:03:14;;;;;;;22.60;15.10;;;9.20;99.90;;;;;;5006406;28;20429;-70
2021/11/14 07:05:40;;;;;;;20.07;14.63;;;9.30;99.90;;;;;;5012948;28;20205;-70
2021/11/14 07:08:05;;;;;;;20.57;16.07;;;9.20;99.90;;;;;;5013347;28;20786;-70
2021/11/14 07:10:31;;;;;;;19.23;14.43;;;9.10;99.90;;;;;;5012799;28;20517;-70
2021/11/14 07:12:57;;;;;;;21.97;15.27;;;9.00;99.90;;;;;;5010883;28;20670;-71
2021/11/14 07:15:22;;;;;;;20.87;14.90;;;9.10;99.90;;;;;;4993132;28;20175;-71
2021/11/14 07:17:48;;;;;;;23.47;15.67;;;9.10;99.90;;;;;;4992661;28;20596;-71
2021/11/14 07:20:15;;;;;;;22.90;16.00;;;9.10;99.90;;;;;;4993115;28;20180;-71
2021/11/14 07:22:42;;;;;;;24.77;18.30;;;9.10;99.90;;;;;;4992568;28;20437;-71
2021/11/14 07:25:09;;;;;;;22.37;17.63;;;9.10;99.90;;;;;;4993845;28;20211;-71
2021/11/14 07:27:35;;;;;;;23.80;16.50;;;9.20;99.90;;;;;;4993489;28;20509;-71
2021/11/14 07:30:01;;;;;;;23.17;16.80;;;9.20;99.90;;;;;;5005071;28;20461;-71
2021/11/14 07:32:26;;;;;;;23.03;15.67;;;9.20;99.90;;;;;;5012387;28;20228;-70
2021/11/14 07:34:52;;;;;;;23.07;15.07;;;9.30;99.90;;;;;;5005264;28;20226;-71
2021/11/14 07:37:17;;;;;;;24.27;17.10;;;9.40;99.90;;;;;;4997315;28;20713;-71
2021/11/14 07:39:43;;;;;;;24.70;16.80;;;9.40;99.90;;;;;;5011774;28;20179;-71
2021/11/14 07:42:08;;;;;;;20.37;15.17;;;9.40;99.90;;;;;;5012740;28;20571;-70
2021/11/14 07:44:34;;;;;;;22.80;15.70;;;9.40;99.90;;;;;;5019081;28;20231;-69
2021/11/14 07:47:00;;;;;;;19.20;13.93;;;9.50;99.90;;;;;;5018897;28;20223;-71
2021/11/14 07:49:25;;;;;;;17.13;14.03;;;9.50;99.90;;;;;;5018415;28;20552;-71
2021/11/14 07:51:51;;;;;;;16.90;12.93;;;9.50;99.90;;;;;;5011573;28;20221;-71
2021/11/14 07:54:16;;;;;;;20.03;13.90;;;9.50;99.90;;;;;;5024459;28;20194;-69
2021/11/14 07:56:42;;;;;;;18.10;13.20;;;9.50;99.90;;;;;;5013852;28;20227;-70
2021/11/14 07:59:08;;;;;;;13.97;11.97;;;9.40;99.90;;;;;;5013167;28;20210;-70
2021/11/14 08:01:33;;;;;;;13.40;11.43;;;9.50;99.90;;;;;;5021412;28;20608;-69
2021/11/14 08:03:59;;;;;;;17.63;12.63;;;9.50;99.90;;;;;;5019974;28;20194;-69
2021/11/14 08:06:24;;;;;;;15.33;11.93;;;9.60;99.90;;;;;;5012379;28;20699;-70
2021/11/14 08:08:50;;;;;;;14.50;12.73;;;9.70;99.90;;;;;;5016447;28;20267;-70
2021/11/14 08:11:16;;;;;;;14.10;12.70;;;9.70;99.90;;;;;;5018905;28;20251;-69
2021/11/14 08:13:41;;;;;;;13.27;11.87;;;9.70;99.90;;;;;;5019495;28;20214;-71
2021/11/14 08:16:07;;;;;;;16.80;13.70;;;9.80;99.90;;;;;;5017948;28;20986;-70
2021/11/14 08:18:33;;;;;;;15.00;11.47;;;9.90;99.90;;;;;;5006593;28;20727;-70
2021/11/14 08:21:00;;;;;;;13.20;11.20;;;9.90;99.90;;;;;;5011100;28;20459;-69
2021/11/14 08:23:26;;;;;;;12.13;10.90;;;9.90;99.90;;;;;;5012096;28;20293;-72
2021/11/14 08:25:52;;;;;;;12.67;11.23;;;9.90;99.90;;;;;;5010795;28;20549;-69
2021/11/14 08:28:18;;;;;;;14.60;11.07;;;9.80;99.90;;;;;;5008989;28;20450;-70
2021/11/14 08:30:44;;;;;;;13.70;11.47;;;9.90;99.90;;;;;;5011631;28;20442;-70
2021/11/14 08:33:10;;;;;;;14.20;12.70;;;9.90;99.90;;;;;;5011305;28;20700;-70
2021/11/14 08:35:36;;;;;;;12.80;10.67;;;10.00;99.90;;;;;;5010731;28;20301;-70
2021/11/14 08:38:05;;;;;;;19.40;12.43;;;9.90;99.90;;;;;;5009853;28;20499;-70
2021/11/14 08:40:33;;;;;;;14.33;12.57;;;9.90;99.90;;;;;;5010494;28;20449;-70
2021/11/14 08:43:00;;;;;;;13.40;10.77;;;9.90;99.90;;;;;;4996258;28;20968;-70
2021/11/14 08:45:27;;;;;;;14.23;12.73;;;10.00;99.90;;;;;;4992714;28;20478;-70
2021/11/14 08:47:53;;;;;;;13.30;11.70;;;10.00;99.90;;;;;;5000474;28;20469;-70
2021/11/14 08:50:20;;;;;;;12.97;11.60;;;10.00;99.90;;;;;;5023906;28;20464;-70
2021/11/14 08:52:45;;;;;;;14.93;11.40;;;10.00;99.90;;;;;;5027322;28;20604;-71
2021/11/14 08:55:17;;;;;;;13.10;10.93;;;10.00;99.90;;;;;;5024922;28;20439;-70
2021/11/14 08:57:43;;;;;;;12.80;11.17;;;10.00;99.90;;;;;;4998450;28;20269;-70
2021/11/14 09:00:12;;;;;;;13.47;12.03;;;10.00;99.90;;;;;;4994011;28;20440;-71
2021/11/14 09:02:38;;;;;;;12.53;11.23;;;9.90;99.90;;;;;;4993177;28;20466;-71
2021/11/14 09:05:04;;;;;;;13.27;11.93;;;9.90;99.90;;;;;;5009106;28;20455;-71
2021/11/14 09:07:30;;;;;;;13.53;11.70;;;9.90;99.90;;;;;;5011534;28;20298;-70
2021/11/14 09:09:55;;;;;;;14.10;11.97;;;10.00;99.90;;;;;;5012183;28;20876;-71
2021/11/14 09:12:22;;;;;;;14.10;12.43;;;10.10;99.90;;;;;;5009379;28;20211;-71
2021/11/14 09:14:48;;;;;;;13.10;11.40;;;10.20;99.90;;;;;;5011165;28;20210;-71
2021/11/14 09:17:13;;;;;;;12.33;10.87;;;10.20;99.90;;;;;;5022373;28;20486;-71
2021/11/14 09:19:40;;;;;;;13.67;12.30;;;10.30;99.90;;;;;;5026150;28;20238;-71
2021/11/14 09:22:05;;;;;;;15.47;12.00;;;10.30;99.90;;;;;;5022960;28;20282;-72
2021/11/14 09:24:31;;;;;;;14.60;12.67;;;10.40;99.90;;;;;;5025940;28;20518;-70
2021/11/14 09:26:57;;;;;;;12.40;11.20;;;10.40;99.90;;;;;;5016860;28;20230;-71
2021/11/14 09:29:23;;;;;;;11.97;10.70;;;10.50;99.90;;;;;;5014299;28;20246;-72
2021/11/14 09:31:48;;;;;;;12.40;11.00;;;10.50;99.90;;;;;;5014085;28;20257;-70
2021/11/14 09:34:14;;;;;;;13.63;11.83;;;10.40;99.90;;;;;;4997495;28;20498;-70
2021/11/14 09:36:39;;;;;;;12.00;10.80;;;10.50;99.90;;;;;;5006447;28;20210;-70
2021/11/14 09:39:08;;;;;;;13.23;11.43;;;10.50;99.90;;;;;;5012675;28;20238;-70
2021/11/14 09:41:44;;;;;;;13.43;11.70;;;10.50;99.90;;;;;;5011759;28;20203;-70
2021/11/14 09:44:13;;;;;;;14.10;11.50;;;10.60;99.90;;;;;;5009956;28;20542;-69
2021/11/14 09:46:45;;;;;;;13.00;11.70;;;10.50;99.90;;;;;;5012996;28;20814;-70
2021/11/14 09:49:11;;;;;;;14.30;11.67;;;10.40;99.90;;;;;;5011075;28;20474;-70
2021/11/14 09:51:36;;;;;;;13.20;11.80;;;10.40;99.90;;;;;;5012246;28;20479;-71
2021/11/14 09:54:02;;;;;;;11.77;10.40;;;10.30;99.90;;;;;;5011123;28;20702;-70
2021/11/14 09:56:28;;;;;;;11.47;10.30;;;10.10;99.90;;;;;;5012120;28;20746;-71
2021/11/14 09:58:53;;;;;;;15.40;11.27;;;10.20;99.90;;;;;;5012975;28;20620;-70
2021/11/14 10:01:19;;;;;;;13.37;11.97;;;10.20;99.90;;;;;;5012478;28;20195;-70
2021/11/14 10:03:45;;;;;;;11.57;10.27;;;10.30;99.90;;;;;;5026649;28;20297;-71
2021/11/14 10:06:11;;;;;;;12.30;11.00;;;10.30;99.90;;;;;;5020950;28;20183;-71
2021/11/14 10:08:42;;;;;;;11.23;10.00;;;10.40;99.90;;;;;;5014800;28;20183;-71
2021/11/14 10:11:08;;;;;;;11.07;9.80;;;10.40;99.90;;;;;;5023574;28;20433;-70
2021/11/14 10:13:35;;;;;;;10.93;9.77;;;10.50;99.90;;;;;;5013264;28;20417;-70
2021/11/14 10:16:04;;;;;;;11.13;9.97;;;10.50;99.90;;;;;;5004226;28;20180;-70
2021/11/14 10:18:29;;;;;;;10.73;9.60;;;10.50;99.90;;;;;;5000174;28;20548;-70
2021/11/14 10:20:59;;;;;;;10.33;9.23;;;10.50;99.90;;;;;;5033717;28;20500;-70
2021/11/14 10:23:25;;;;;;;9.77;8.73;;;10.50;99.90;;;;;;5002723;28;20175;-70
2021/11/14 10:25:54;;;;;;;14.27;12.10;;;10.50;99.90;;;;;;5009673;28;20411;-70
2021/11/14 10:28:20;;;;;;;13.37;11.97;;;10.60;99.90;;;;;;4994332;28;20454;-70
2021/11/14 10:33:16;;;;;;;23.53;18.67;;;10.50;99.90;;;;;;4997326;28;20220;-71
2021/11/14 10:35:45;;;;;;;26.83;21.23;;;10.50;99.90;;;;;;5002851;28;20441;-71
2021/11/14 10:38:15;;;;;;;15.93;14.43;;;10.50;99.90;;;;;;5000122;28;20986;-71
2021/11/14 10:40:47;;;;;;;11.30;10.13;;;10.60;99.90;;;;;;5014237;28;20415;-70
2021/11/14 10:43:13;;;;;;;9.13;8.07;;;10.70;99.90;;;;;;5012098;28;20518;-71
2021/11/14 10:45:41;;;;;;;9.90;8.73;;;10.80;99.90;;;;;;5013865;28;20398;-71
2021/11/14 10:48:13;;;;;;;7.90;7.10;;;10.90;99.90;;;;;;5014041;28;20464;-70
2021/11/14 10:50:42;;;;;;;8.73;6.30;;;10.90;99.90;;;;;;5014334;28;20414;-71
2021/11/14 10:53:13;;;;;;;8.13;7.30;;;11.00;99.90;;;;;;5012828;28;20426;-72
2021/11/14 10:55:42;;;;;;;7.63;6.90;;;11.10;99.90;;;;;;5009588;28;20984;-70
2021/11/14 10:58:08;;;;;;;7.90;7.13;;;11.10;99.90;;;;;;4994407;28;20466;-71
2021/11/14 11:00:34;;;;;;;8.40;7.60;;;11.10;99.90;;;;;;4994990;28;20824;-71
2021/11/14 11:03:01;;;;;;;7.53;6.83;;;11.00;99.90;;;;;;4996171;28;20454;-71
2021/11/14 11:05:29;;;;;;;7.17;6.47;;;11.10;99.90;;;;;;5013264;28;20418;-70
2021/11/14 11:08:01;;;;;;;7.57;6.80;;;11.10;99.90;;;;;;5013855;28;20407;-70
2021/11/14 11:10:39;;;;;;;8.57;7.60;;;11.00;99.90;;;;;;5022827;28;20438;-70
2021/11/14 11:13:08;;;;;;;7.87;7.03;;;11.10;99.90;;;;;;5030845;28;20401;-70
2021/11/14 11:15:48;;;;;;;7.23;6.53;;;11.20;99.90;;;;;;4993677;28;20470;-69
2021/11/14 11:18:17;;;;;;;7.70;6.60;;;11.20;99.90;;;;;;4993027;28;20458;-71
2021/11/14 11:20:44;;;;;;;6.27;5.67;;;11.30;99.90;;;;;;4994096;28;20443;-70
2021/11/14 11:23:14;;;;;;;6.30;5.70;;;11.40;99.90;;;;;;4993521;28;20423;-70
2021/11/14 11:25:42;;;;;;;5.93;5.43;;;11.40;99.90;;;;;;5010299;28;20458;-72
2021/11/14 11:28:17;;;;;;;7.23;5.67;;;11.40;99.90;;;;;;5013498;28;20826;-72
2021/11/14 11:30:50;;;;;;;6.00;5.50;;;11.40;99.90;;;;;;5001461;28;20457;-71
2021/11/14 11:33:17;;;;;;;5.80;5.30;;;11.50;99.90;;;;;;4995601;28;20411;-71
2021/11/14 11:35:44;;;;;;;5.87;5.37;;;11.50;99.90;;;;;;4997604;28;20423;-70
2021/11/14 11:38:10;;;;;;;5.40;4.90;;;11.50;99.90;;;;;;4994213;28;20455;-71
2021/11/14 11:40:36;;;;;;;4.63;4.27;;;11.70;99.90;;;;;;4993502;28;20411;-70
2021/11/14 11:43:03;;;;;;;5.00;4.60;;;11.60;99.90;;;;;;4992468;28;20192;-72
2021/11/14 11:45:32;;;;;;;5.40;4.90;;;11.70;99.90;;;;;;4994131;28;20424;-69
2021/11/14 11:48:01;;;;;;;5.03;4.63;;;11.80;99.90;;;;;;4992959;28;20469;-71
2021/11/14 11:50:28;;;;;;;5.00;4.50;;;11.80;99.90;;;;;;4993058;28;20547;-70
2021/11/14 11:52:55;;;;;;;4.80;4.40;;;11.80;99.90;;;;;;4993349;28;20435;-70
2021/11/14 11:55:26;;;;;;;4.27;3.73;;;11.80;99.90;;;;;;4992774;28;20427;-71
2021/11/14 11:57:54;;;;;;;4.10;3.70;;;11.80;99.90;;;;;;4994313;28;20447;-71
2021/11/14 12:00:21;;;;;;;4.63;4.30;;;11.70;99.90;;;;;;4993107;28;20788;-72
2021/11/14 12:02:47;;;;;;;4.60;4.20;;;11.60;99.90;;;;;;4992769;28;20431;-70
2021/11/14 12:05:16;;;;;;;4.70;3.60;;;11.60;99.90;;;;;;5009841;28;20430;-70
2021/11/14 12:07:50;;;;;;;4.30;3.90;;;11.50;99.90;;;;;;5010898;28;20183;-71
2021/11/14 12:10:26;;;;;;;3.50;3.30;;;11.40;99.90;;;;;;5020352;28;20453;-71
2021/11/14 12:12:55;;;;;;;4.13;3.83;;;11.30;99.90;;;;;;5031858;28;20436;-71
2021/11/14 12:15:29;;;;;;;3.80;3.50;;;11.20;99.90;;;;;;5032100;28;20467;-70
2021/11/14 12:18:00;;;;;;;4.70;4.23;;;11.20;99.90;;;;;;5020102;28;20816;-72
2021/11/14 12:20:28;;;;;;;4.03;3.73;;;11.40;99.90;;;;;;5012433;28;20391;-69
2021/11/14 12:22:58;;;;;;;4.67;4.17;;;11.40;99.90;;;;;;5011030;28;20502;-69
2021/11/14 12:25:27;;;;;;;4.30;3.90;;;11.50;99.90;;;;;;5011692;28;20398;-71
2021/11/14 12:28:10;;;;;;;3.87;3.57;;;11.60;99.90;;;;;;5009547;28;20427;-70
2021/11/14 12:30:41;;;;;;;4.10;3.80;;;11.50;99.90;;;;;;5001167;28;20864;-70
2021/11/14 12:33:08;;;;;;;6.07;3.73;;;11.30;99.90;;;;;;5012396;28;20430;-71